NCAR-RAP Real-Time Weather Data

Output produced by METARs form (10 April 2020  07:25 UTC)
found at http://weather.rap.ucar.edu/surface/
 
KCPR 100653Z AUTO 00000KT 10SM CLR M01/M06 A2996 RMK AO2 SLP144 T10061061 401221061
KCPR 100553Z AUTO 05006KT 10SM CLR M01/M06 A2997 RMK AO2 SLP154 T10111056 10117 21011 58008
KCPR 100453Z AUTO 06005KT 10SM CLR 03/M06 A2999 RMK AO2 SLP153 T00281061
KCPR 100353Z AUTO 13005KT 10SM CLR 04/M06 A3000 RMK AO2 SLP155 T00391056
KCPR 100253Z AUTO 09012KT 10SM CLR 06/M06 A3000 RMK AO2 SLP158 T00561061 55005
KCPR 100153Z 09010KT 10SM CLR 08/M06 A2999 RMK AO2 SLP159 T00781061
KCPR 100053Z 10010KT 10SM CLR 11/M06 A3001 RMK AO2 SLP168 T01061061
KCPR 092353Z 08009KT 10SM CLR 12/M06 A3002 RMK AO2 SLP167 T01171061 10122 20067 56022
KCPR 092253Z 06008KT 10SM CLR 12/M07 A3003 RMK AO2 SLP172 T01221067
KCPR 092153Z 06007KT 10SM CLR 12/M07 A3006 RMK AO2 SLP177 T01171067
KCPR 092053Z 10007KT 050V130 10SM CLR 11/M06 A3009 RMK AO2 SLP193 T01061061 56024
KCPR 091953Z 11009KT 10SM CLR 10/M06 A3012 RMK AO2 SLP202 T01001061
KCPR 091853Z 07008KT 10SM CLR 08/M08 A3015 RMK AO2 SLP216 T00781083
KCPR 091753Z VRB03KT 10SM CLR 07/M09 A3018 RMK AO2 SLP225 T00671089 10072 21061 58010
KCPR 091653Z 04007KT 10SM CLR 06/M08 A3020 RMK AO2 SLP234 T00611078
KCPR 091553Z AUTO 07006KT 10SM CLR 04/M08 A3020 RMK AO2 SLP230 T00441083
KCPR 091453Z 03003KT 10SM CLR 02/M04 A3021 RMK AO2 SLP235 T00221039 51007
KCPR 091353Z 35006KT 10SM CLR M02/M04 A3021 RMK AO2 SLP239 T10171044
KCPR 091253Z 00000KT 10SM CLR M06/M08 A3019 RMK AO2 SLP234 T10611078
KCPR 091153Z 02008KT 10SM CLR M05/M07 A3018 RMK AO2 SLP221 T10501072 11017 21061 53006
KCPR 091053Z 34004KT 10SM CLR M06/M07 A3017 RMK AO2 SLP219 T10561072
KCPR 090953Z AUTO 35007KT 10SM CLR M04/M07 A3016 RMK AO2 SLP216 T10441067